ANZ102 YSSY-NZAA
Flight info
| Callsign | ANZ102 |
|---|---|
| Flight time | N/A |
| Altitude | 37000 |
| Route | EVONN L521 LUNBI |
| Aircraft | A21N/M-SDE2E3FGHIRWXY/LB1 |
Departure
| Time | N/A |
|---|---|
| Airport | Sydney Kingsford Smith International Airport (YSSY) |
Arrival
| Time | 2026-05-06 03:07 |
|---|---|
| Airport | Auckland International Airport (NZAA) |
| Time | Latitude | Longitude | Altitude | Speed | Heading |
|---|---|---|---|---|---|
| 2026-05-06 02:31 | -37.25003 | 170.54783 | 37282 ft | 488 kts | 96° |
| 2026-05-06 02:31 | -37.25275 | 170.59048 | 37284 ft | 488 kts | 96° |
| 2026-05-06 02:32 | -37.25496 | 170.67568 | 37293 ft | 489 kts | 91° |
| 2026-05-06 02:32 | -37.25363 | 170.76094 | 37291 ft | 488 kts | 90° |
| 2026-05-06 02:33 | -37.25152 | 170.84605 | 37309 ft | 488 kts | 89° |
| 2026-05-06 02:33 | -37.25076 | 170.87425 | 37301 ft | 488 kts | 89° |
| 2026-05-06 02:34 | -37.24670 | 171.01610 | 37299 ft | 486 kts | 89° |
| 2026-05-06 02:34 | -37.24415 | 171.10085 | 37303 ft | 486 kts | 89° |
| 2026-05-06 02:35 | -37.24154 | 171.18554 | 37303 ft | 486 kts | 89° |
| 2026-05-06 02:35 | -37.23888 | 171.27014 | 37317 ft | 484 kts | 89° |
| 2026-05-06 02:36 | -37.23616 | 171.35451 | 37310 ft | 483 kts | 89° |
| 2026-05-06 02:36 | -37.23339 | 171.43875 | 37320 ft | 483 kts | 89° |
| 2026-05-06 02:37 | -37.23056 | 171.52302 | 37316 ft | 483 kts | 89° |
| 2026-05-06 02:37 | -37.22766 | 171.60699 | 37314 ft | 481 kts | 89° |
| 2026-05-06 02:38 | -37.22473 | 171.69079 | 37320 ft | 480 kts | 89° |
| 2026-05-06 02:38 | -37.22176 | 171.77450 | 37322 ft | 480 kts | 89° |
| 2026-05-06 02:39 | -37.21873 | 171.85792 | 37335 ft | 478 kts | 89° |
| 2026-05-06 02:39 | -37.21567 | 171.94040 | 37325 ft | 477 kts | 89° |
| 2026-05-06 02:40 | -37.21252 | 172.02345 | 37323 ft | 476 kts | 89° |
| 2026-05-06 02:40 | -37.20932 | 172.10639 | 37344 ft | 476 kts | 89° |
| 2026-05-06 02:41 | -37.20607 | 172.18924 | 37329 ft | 475 kts | 89° |
| 2026-05-06 02:41 | -37.20276 | 172.27204 | 37329 ft | 475 kts | 89° |
| 2026-05-06 02:42 | -37.19939 | 172.35485 | 37327 ft | 475 kts | 89° |
| 2026-05-06 02:42 | -37.19767 | 172.39672 | 36493 ft | 489 kts | 89° |
| 2026-05-06 02:42 | -37.19588 | 172.43929 | 35708 ft | 489 kts | 89° |
| 2026-05-06 02:42 | -37.19407 | 172.48185 | 34857 ft | 489 kts | 89° |
| 2026-05-06 02:43 | -37.19223 | 172.52436 | 33985 ft | 488 kts | 89° |
| 2026-05-06 02:43 | -37.19039 | 172.56679 | 33061 ft | 487 kts | 89° |
| 2026-05-06 02:43 | -37.18857 | 172.60913 | 32163 ft | 485 kts | 89° |
| 2026-05-06 02:43 | -37.18675 | 172.65130 | 31295 ft | 483 kts | 89° |
| 2026-05-06 02:44 | -37.18492 | 172.69325 | 30456 ft | 480 kts | 89° |
| 2026-05-06 02:44 | -37.18309 | 172.73492 | 29499 ft | 477 kts | 89° |
| 2026-05-06 02:44 | -37.18127 | 172.77633 | 28560 ft | 474 kts | 89° |
| 2026-05-06 02:44 | -37.17946 | 172.81742 | 27658 ft | 470 kts | 89° |
| 2026-05-06 02:45 | -37.17765 | 172.85821 | 26777 ft | 466 kts | 88° |
| 2026-05-06 02:45 | -37.17584 | 172.89864 | 25931 ft | 462 kts | 88° |
| 2026-05-06 02:45 | -37.17403 | 172.93867 | 25106 ft | 458 kts | 88° |
| 2026-05-06 02:45 | -37.17223 | 172.97832 | 24302 ft | 453 kts | 88° |
| 2026-05-06 02:46 | -37.17042 | 173.01760 | 23438 ft | 449 kts | 88° |
| 2026-05-06 02:46 | -37.16863 | 173.05642 | 22551 ft | 444 kts | 88° |
| 2026-05-06 02:46 | -37.16685 | 173.09477 | 21702 ft | 438 kts | 87° |
| 2026-05-06 02:46 | -37.16508 | 173.13266 | 20901 ft | 432 kts | 87° |
| 2026-05-06 02:47 | -37.16332 | 173.17000 | 20133 ft | 426 kts | 87° |
| 2026-05-06 02:47 | -37.16158 | 173.20678 | 19408 ft | 420 kts | 86° |
| 2026-05-06 02:47 | -37.15985 | 173.24310 | 18709 ft | 414 kts | 86° |
| 2026-05-06 02:47 | -37.15812 | 173.27892 | 17931 ft | 408 kts | 86° |
| 2026-05-06 02:48 | -37.15640 | 173.31416 | 17184 ft | 402 kts | 85° |
| 2026-05-06 02:48 | -37.15469 | 173.34888 | 16476 ft | 395 kts | 85° |
| 2026-05-06 02:48 | -37.15296 | 173.38293 | 15810 ft | 388 kts | 85° |
| 2026-05-06 02:48 | -37.15123 | 173.41612 | 15253 ft | 372 kts | 84° |
| 2026-05-06 02:49 | -37.14953 | 173.44768 | 14772 ft | 355 kts | 84° |
| 2026-05-06 02:49 | -37.14785 | 173.47801 | 14300 ft | 345 kts | 84° |
| 2026-05-06 02:49 | -37.14614 | 173.50783 | 13793 ft | 341 kts | 84° |
| 2026-05-06 02:49 | -37.14441 | 173.53715 | 13271 ft | 332 kts | 83° |
| 2026-05-06 02:50 | -37.14276 | 173.56509 | 12752 ft | 320 kts | 83° |
| 2026-05-06 02:50 | -37.14113 | 173.59233 | 12257 ft | 308 kts | 83° |
| 2026-05-06 02:50 | -37.13954 | 173.61864 | 11762 ft | 298 kts | 83° |
| 2026-05-06 02:50 | -37.13799 | 173.64413 | 11275 ft | 289 kts | 83° |
| 2026-05-06 02:51 | -37.13648 | 173.66886 | 10791 ft | 281 kts | 83° |
| 2026-05-06 02:51 | -37.13504 | 173.69270 | 10543 ft | 263 kts | 82° |
| 2026-05-06 02:51 | -37.13374 | 173.71475 | 10345 ft | 246 kts | 82° |
| 2026-05-06 02:51 | -37.13249 | 173.73562 | 10315 ft | 240 kts | 82° |
| 2026-05-06 02:52 | -37.13118 | 173.75647 | 10327 ft | 239 kts | 82° |
| 2026-05-06 02:52 | -37.12986 | 173.77721 | 10337 ft | 240 kts | 82° |
| 2026-05-06 02:52 | -37.12853 | 173.79802 | 10356 ft | 239 kts | 82° |
| 2026-05-06 02:52 | -37.12722 | 173.81879 | 10358 ft | 240 kts | 82° |
| 2026-05-06 02:53 | -37.12589 | 173.83958 | 10358 ft | 239 kts | 82° |
| 2026-05-06 02:53 | -37.12459 | 173.86034 | 10356 ft | 239 kts | 82° |
| 2026-05-06 02:53 | -37.12330 | 173.88110 | 10358 ft | 240 kts | 82° |
| 2026-05-06 02:53 | -37.12199 | 173.90191 | 10356 ft | 239 kts | 82° |
| 2026-05-06 02:54 | -37.12072 | 173.92262 | 10358 ft | 239 kts | 82° |
| 2026-05-06 02:54 | -37.11942 | 173.94340 | 10361 ft | 239 kts | 82° |
| 2026-05-06 02:54 | -37.11813 | 173.96418 | 10362 ft | 239 kts | 82° |
| 2026-05-06 02:54 | -37.11682 | 173.98490 | 10360 ft | 238 kts | 82° |
| 2026-05-06 02:55 | -37.11551 | 174.00565 | 10358 ft | 240 kts | 82° |
| 2026-05-06 02:55 | -37.11417 | 174.02676 | 9983 ft | 249 kts | 82° |
| 2026-05-06 02:55 | -37.11278 | 174.04817 | 9574 ft | 245 kts | 82° |
| 2026-05-06 02:55 | -37.11141 | 174.06955 | 9059 ft | 247 kts | 82° |
| 2026-05-06 02:56 | -37.11003 | 174.09099 | 8546 ft | 248 kts | 82° |
| 2026-05-06 02:56 | -37.10870 | 174.11189 | 8068 ft | 238 kts | 82° |
| 2026-05-06 02:56 | -37.10742 | 174.13213 | 7616 ft | 228 kts | 82° |
| 2026-05-06 02:56 | -37.10616 | 174.15196 | 7172 ft | 229 kts | 82° |
| 2026-05-06 02:57 | -37.10487 | 174.17177 | 6780 ft | 228 kts | 82° |
| 2026-05-06 02:57 | -37.10357 | 174.19153 | 6378 ft | 227 kts | 82° |
| 2026-05-06 02:57 | -37.10228 | 174.21111 | 5977 ft | 225 kts | 82° |
| 2026-05-06 02:57 | -37.10102 | 174.23056 | 5591 ft | 224 kts | 82° |
| 2026-05-06 02:58 | -37.09974 | 174.24991 | 5219 ft | 221 kts | 82° |
| 2026-05-06 02:58 | -37.09851 | 174.26892 | 4956 ft | 212 kts | 82° |
| 2026-05-06 02:58 | -37.09740 | 174.28686 | 4988 ft | 211 kts | 84° |
| 2026-05-06 02:58 | -37.09848 | 174.30531 | 5005 ft | 214 kts | 95° |
| 2026-05-06 02:59 | -37.10101 | 174.32379 | 5003 ft | 217 kts | 96° |
| 2026-05-06 02:59 | -37.10361 | 174.34243 | 5005 ft | 218 kts | 96° |
| 2026-05-06 02:59 | -37.10601 | 174.36112 | 5000 ft | 215 kts | 95° |
| 2026-05-06 02:59 | -37.10801 | 174.37942 | 4997 ft | 204 kts | 92° |
| 2026-05-06 03:00 | -37.10902 | 174.39710 | 5011 ft | 206 kts | 86° |
| 2026-05-06 03:00 | -37.10837 | 174.41516 | 4713 ft | 213 kts | 79° |
| 2026-05-06 03:00 | -37.10609 | 174.43340 | 4375 ft | 207 kts | 75° |
| 2026-05-06 03:00 | -37.10292 | 174.45084 | 4015 ft | 204 kts | 72° |
| 2026-05-06 03:01 | -37.09917 | 174.46787 | 3637 ft | 202 kts | 70° |
| 2026-05-06 03:01 | -37.09504 | 174.48458 | 3261 ft | 200 kts | 68° |
| 2026-05-06 03:01 | -37.09069 | 174.50096 | 2929 ft | 195 kts | 68° |
| 2026-05-06 03:01 | -37.08650 | 174.51647 | 2787 ft | 185 kts | 67° |
| 2026-05-06 03:02 | -37.08220 | 174.53192 | 2641 ft | 189 kts | 68° |
| 2026-05-06 03:02 | -37.07934 | 174.54223 | 2638 ft | 192 kts | 67° |
| 2026-05-06 03:02 | -37.07490 | 174.55810 | 2645 ft | 189 kts | 67° |
| 2026-05-06 03:02 | -37.06910 | 174.57896 | 2669 ft | 186 kts | 67° |
| 2026-05-06 03:03 | -37.06524 | 174.59305 | 2754 ft | 158 kts | 66° |
| 2026-05-06 03:03 | -37.06293 | 174.60166 | 2746 ft | 159 kts | 68° |
| 2026-05-06 03:03 | -37.05889 | 174.61942 | 2537 ft | 158 kts | 70° |
| 2026-05-06 03:03 | -37.05550 | 174.63262 | 2243 ft | 158 kts | 68° |
| 2026-05-06 03:04 | -37.05332 | 174.64106 | 2131 ft | 152 kts | 69° |
| 2026-05-06 03:04 | -37.05008 | 174.65388 | 1942 ft | 155 kts | 68° |
| 2026-05-06 03:04 | -37.04699 | 174.66670 | 1705 ft | 153 kts | 68° |
| 2026-05-06 03:04 | -37.04347 | 174.67924 | 1465 ft | 153 kts | 65° |
| 2026-05-06 03:05 | -37.03981 | 174.69175 | 1244 ft | 151 kts | 66° |
| 2026-05-06 03:05 | -37.03607 | 174.70413 | 1012 ft | 153 kts | 66° |
| 2026-05-06 03:05 | -37.03240 | 174.71647 | 833 ft | 151 kts | 64° |
| 2026-05-06 03:05 | -37.02876 | 174.72899 | 672 ft | 150 kts | 64° |
| 2026-05-06 03:06 | -37.02521 | 174.74080 | 500 ft | 138 kts | 64° |
| 2026-05-06 03:06 | -37.02199 | 174.75200 | 297 ft | 135 kts | 67° |
| 2026-05-06 03:06 | -37.01849 | 174.76321 | 182 ft | 139 kts | 68° |
| 2026-05-06 03:06 | -37.01531 | 174.77468 | 50 ft | 139 kts | 66° |
| 2026-05-06 03:07 | -37.01217 | 174.78571 | 27 ft | 119 kts | 68° |
| 2026-05-06 03:07 | -37.01032 | 174.79247 | 26 ft | 68 kts | 69° |
| 2026-05-06 03:07 | -37.00875 | 174.79620 | 28 ft | 40 kts | 47° |
| 2026-05-06 03:07 | -37.00799 | 174.79699 | 29 ft | 0 kts | 11° |
| 2026-05-06 03:08 | -37.00778 | 174.79706 | 27 ft | 8 kts | 13° |
| 2026-05-06 03:08 | -37.00679 | 174.79683 | 29 ft | 14 kts | 316° |
| 2026-05-06 03:08 | -37.00669 | 174.79548 | 28 ft | 20 kts | 250° |
| 2026-05-06 03:09 | -37.00710 | 174.79399 | 29 ft | 16 kts | 251° |
| 2026-05-06 03:09 | -37.00735 | 174.79303 | 28 ft | 8 kts | 252° |
| 2026-05-06 03:09 | -37.00748 | 174.79251 | 28 ft | 6 kts | 252° |
| 2026-05-06 03:09 | -37.00739 | 174.79222 | 26 ft | 3 kts | 313° |
| 2026-05-06 03:10 | -37.00717 | 174.79208 | 28 ft | 4 kts | 338° |
| 2026-05-06 03:10 | -37.00686 | 174.79186 | 30 ft | 1 kts | 320° |
| 2026-05-06 03:10 | -37.00682 | 174.79182 | 29 ft | 1 kts | 319° |